sensor_id;sensor_type;location;lat;lon;timestamp;temperature;humidity
47336;DHT22;33068;51.990;5.926;2022-10-16T00:01:18;10.90;99.90
47336;DHT22;33068;51.990;5.926;2022-10-16T00:03:47;10.90;99.90
47336;DHT22;33068;51.990;5.926;2022-10-16T00:06:16;10.90;99.90
47336;DHT22;33068;51.990;5.926;2022-10-16T00:08:44;10.90;99.90
47336;DHT22;33068;51.990;5.926;2022-10-16T00:11:13;11.00;99.90
47336;DHT22;33068;51.990;5.926;2022-10-16T00:13:42;11.00;99.90
47336;DHT22;33068;51.990;5.926;2022-10-16T00:16:11;11.00;99.90
47336;DHT22;33068;51.990;5.926;2022-10-16T00:18:39;11.00;99.90
47336;DHT22;33068;51.990;5.926;2022-10-16T00:21:10;11.10;99.90
47336;DHT22;33068;51.990;5.926;2022-10-16T00:23:37;11.10;99.90
47336;DHT22;33068;51.990;5.926;2022-10-16T00:26:06;11.20;99.90
47336;DHT22;33068;51.990;5.926;2022-10-16T00:28:34;11.20;99.90
47336;DHT22;33068;51.990;5.926;2022-10-16T00:31:03;11.20;99.90
47336;DHT22;33068;51.990;5.926;2022-10-16T00:33:31;11.20;99.90
47336;DHT22;33068;51.990;5.926;2022-10-16T00:35:58;11.20;99.90
47336;DHT22;33068;51.990;5.926;2022-10-16T00:38:27;11.30;99.90
47336;DHT22;33068;51.990;5.926;2022-10-16T00:40:54;11.30;99.90
47336;DHT22;33068;51.990;5.926;2022-10-16T00:43:37;11.30;99.90
47336;DHT22;33068;51.990;5.926;2022-10-16T00:46:11;11.30;99.90
47336;DHT22;33068;51.990;5.926;2022-10-16T00:48:39;11.40;99.90
47336;DHT22;33068;51.990;5.926;2022-10-16T00:51:07;11.30;99.90
47336;DHT22;33068;51.990;5.926;2022-10-16T00:53:36;11.30;99.90
47336;DHT22;33068;51.990;5.926;2022-10-16T00:56:04;11.40;99.90
47336;DHT22;33068;51.990;5.926;2022-10-16T00:58:31;11.30;99.90
47336;DHT22;33068;51.990;5.926;2022-10-16T01:00:58;11.30;99.90
47336;DHT22;33068;51.990;5.926;2022-10-16T01:03:27;11.30;99.90
47336;DHT22;33068;51.990;5.926;2022-10-16T01:06:12;11.30;99.90
47336;DHT22;33068;51.990;5.926;2022-10-16T01:08:54;11.30;99.90
47336;DHT22;33068;51.990;5.926;2022-10-16T01:11:30;11.30;99.90
47336;DHT22;33068;51.990;5.926;2022-10-16T01:14:05;11.20;99.90
47336;DHT22;33068;51.990;5.926;2022-10-16T01:16:37;11.10;99.90
47336;DHT22;33068;51.990;5.926;2022-10-16T01:19:10;11.20;99.90
47336;DHT22;33068;51.990;5.926;2022-10-16T01:21:41;11.10;99.90
47336;DHT22;33068;51.990;5.926;2022-10-16T01:24:19;11.10;99.90
47336;DHT22;33068;51.990;5.926;2022-10-16T01:27:07;11.10;99.90
47336;DHT22;33068;51.990;5.926;2022-10-16T01:29:39;11.20;99.90
47336;DHT22;33068;51.990;5.926;2022-10-16T01:32:14;11.10;99.90
47336;DHT22;33068;51.990;5.926;2022-10-16T01:34:48;11.10;99.90
47336;DHT22;33068;51.990;5.926;2022-10-16T01:37:23;11.10;99.90
47336;DHT22;33068;51.990;5.926;2022-10-16T01:39:55;11.10;99.90
47336;DHT22;33068;51.990;5.926;2022-10-16T01:42:29;11.20;99.90
47336;DHT22;33068;51.990;5.926;2022-10-16T01:44:58;11.20;99.90
47336;DHT22;33068;51.990;5.926;2022-10-16T01:47:27;11.20;99.90
47336;DHT22;33068;51.990;5.926;2022-10-16T01:49:55;11.10;99.90
47336;DHT22;33068;51.990;5.926;2022-10-16T01:52:25;11.30;99.90
47336;DHT22;33068;51.990;5.926;2022-10-16T01:54:55;11.30;99.90
47336;DHT22;33068;51.990;5.926;2022-10-16T01:57:26;11.40;99.90
47336;DHT22;33068;51.990;5.926;2022-10-16T01:59:58;11.40;99.90
47336;DHT22;33068;51.990;5.926;2022-10-16T02:02:38;11.40;99.90
47336;DHT22;33068;51.990;5.926;2022-10-16T02:05:12;11.40;99.90
47336;DHT22;33068;51.990;5.926;2022-10-16T02:07:41;11.40;99.90
47336;DHT22;33068;51.990;5.926;2022-10-16T02:10:10;11.40;99.90
47336;DHT22;33068;51.990;5.926;2022-10-16T02:12:41;11.40;99.90
47336;DHT22;33068;51.990;5.926;2022-10-16T02:15:09;11.50;99.90
47336;DHT22;33068;51.990;5.926;2022-10-16T02:17:36;11.50;99.90
47336;DHT22;33068;51.990;5.926;2022-10-16T02:20:04;11.50;99.90
47336;DHT22;33068;51.990;5.926;2022-10-16T02:22:34;11.60;99.90
47336;DHT22;33068;51.990;5.926;2022-10-16T02:25:06;11.60;99.90
47336;DHT22;33068;51.990;5.926;2022-10-16T02:27:40;11.60;99.90
47336;DHT22;33068;51.990;5.926;2022-10-16T02:30:13;11.60;99.90
47336;DHT22;33068;51.990;5.926;2022-10-16T02:32:42;11.70;99.90
47336;DHT22;33068;51.990;5.926;2022-10-16T02:35:11;11.70;99.90
47336;DHT22;33068;51.990;5.926;2022-10-16T02:37:40;11.70;99.90
47336;DHT22;33068;51.990;5.926;2022-10-16T02:40:08;11.70;99.90
47336;DHT22;33068;51.990;5.926;2022-10-16T02:42:38;11.70;99.90
47336;DHT22;33068;51.990;5.926;2022-10-16T02:45:09;11.70;99.90
47336;DHT22;33068;51.990;5.926;2022-10-16T02:47:36;11.70;99.90
47336;DHT22;33068;51.990;5.926;2022-10-16T02:50:04;11.70;99.90
47336;DHT22;33068;51.990;5.926;2022-10-16T02:52:31;11.60;99.90
47336;DHT22;33068;51.990;5.926;2022-10-16T02:54:58;11.60;99.90
47336;DHT22;33068;51.990;5.926;2022-10-16T02:57:25;11.70;99.90
47336;DHT22;33068;51.990;5.926;2022-10-16T02:59:52;11.50;99.90
47336;DHT22;33068;51.990;5.926;2022-10-16T03:02:21;11.60;99.90
47336;DHT22;33068;51.990;5.926;2022-10-16T03:04:48;11.50;99.90
47336;DHT22;33068;51.990;5.926;2022-10-16T03:07:15;11.50;99.90
47336;DHT22;33068;51.990;5.926;2022-10-16T03:09:42;11.50;99.90
47336;DHT22;33068;51.990;5.926;2022-10-16T03:12:09;11.50;99.90
47336;DHT22;33068;51.990;5.926;2022-10-16T03:14:37;11.50;99.90
47336;DHT22;33068;51.990;5.926;2022-10-16T03:17:05;11.60;99.90
47336;DHT22;33068;51.990;5.926;2022-10-16T03:19:33;11.70;99.90
47336;DHT22;33068;51.990;5.926;2022-10-16T03:22:01;11.70;99.90
47336;DHT22;33068;51.990;5.926;2022-10-16T03:24:28;11.70;99.90
47336;DHT22;33068;51.990;5.926;2022-10-16T03:26:55;11.60;99.90
47336;DHT22;33068;51.990;5.926;2022-10-16T03:29:23;11.60;99.90
47336;DHT22;33068;51.990;5.926;2022-10-16T03:31:51;11.60;99.90
47336;DHT22;33068;51.990;5.926;2022-10-16T03:34:18;11.60;99.90
47336;DHT22;33068;51.990;5.926;2022-10-16T03:36:47;11.70;99.90
47336;DHT22;33068;51.990;5.926;2022-10-16T03:39:14;11.70;99.90
47336;DHT22;33068;51.990;5.926;2022-10-16T03:41:41;11.60;99.90
47336;DHT22;33068;51.990;5.926;2022-10-16T03:44:08;11.60;99.90
47336;DHT22;33068;51.990;5.926;2022-10-16T03:46:35;11.60;99.90
47336;DHT22;33068;51.990;5.926;2022-10-16T03:49:02;11.60;99.90
47336;DHT22;33068;51.990;5.926;2022-10-16T03:51:29;11.60;99.90
47336;DHT22;33068;51.990;5.926;2022-10-16T03:53:58;11.60;99.90
47336;DHT22;33068;51.990;5.926;2022-10-16T03:56:25;11.60;99.90
47336;DHT22;33068;51.990;5.926;2022-10-16T03:58:52;11.50;99.90
47336;DHT22;33068;51.990;5.926;2022-10-16T04:01:19;11.50;99.90
47336;DHT22;33068;51.990;5.926;2022-10-16T04:03:46;11.50;99.90
47336;DHT22;33068;51.990;5.926;2022-10-16T04:06:13;11.50;99.90
47336;DHT22;33068;51.990;5.926;2022-10-16T04:08:42;11.50;99.90
47336;DHT22;33068;51.990;5.926;2022-10-16T04:11:10;11.50;99.90
47336;DHT22;33068;51.990;5.926;2022-10-16T04:13:37;11.60;99.90
47336;DHT22;33068;51.990;5.926;2022-10-16T04:16:05;11.70;99.90
47336;DHT22;33068;51.990;5.926;2022-10-16T04:18:32;11.60;99.90
47336;DHT22;33068;51.990;5.926;2022-10-16T04:21:02;11.60;99.90
47336;DHT22;33068;51.990;5.926;2022-10-16T04:23:30;11.60;99.90
47336;DHT22;33068;51.990;5.926;2022-10-16T04:25:57;11.70;99.90
47336;DHT22;33068;51.990;5.926;2022-10-16T04:28:25;11.70;99.90
47336;DHT22;33068;51.990;5.926;2022-10-16T04:30:52;11.70;99.90
47336;DHT22;33068;51.990;5.926;2022-10-16T04:33:19;11.70;99.90
47336;DHT22;33068;51.990;5.926;2022-10-16T04:35:46;11.80;99.90
47336;DHT22;33068;51.990;5.926;2022-10-16T04:38:13;11.80;99.90
47336;DHT22;33068;51.990;5.926;2022-10-16T04:40:42;11.80;99.90
47336;DHT22;33068;51.990;5.926;2022-10-16T04:43:09;11.80;99.90
47336;DHT22;33068;51.990;5.926;2022-10-16T04:45:37;11.80;99.90
47336;DHT22;33068;51.990;5.926;2022-10-16T04:48:04;11.90;99.90
47336;DHT22;33068;51.990;5.926;2022-10-16T04:50:31;11.80;99.90
47336;DHT22;33068;51.990;5.926;2022-10-16T04:53:05;11.90;99.90
47336;DHT22;33068;51.990;5.926;2022-10-16T04:55:33;11.90;99.90
47336;DHT22;33068;51.990;5.926;2022-10-16T04:58:00;11.90;99.90
47336;DHT22;33068;51.990;5.926;2022-10-16T05:00:27;11.80;99.90
47336;DHT22;33068;51.990;5.926;2022-10-16T05:02:55;11.90;99.90
47336;DHT22;33068;51.990;5.926;2022-10-16T05:05:22;11.80;99.90
47336;DHT22;33068;51.990;5.926;2022-10-16T05:07:49;11.80;99.90
47336;DHT22;33068;51.990;5.926;2022-10-16T05:10:16;11.80;99.90
47336;DHT22;33068;51.990;5.926;2022-10-16T05:12:44;11.80;99.90
47336;DHT22;33068;51.990;5.926;2022-10-16T05:15:11;11.80;99.90
47336;DHT22;33068;51.990;5.926;2022-10-16T05:17:38;11.70;99.90
47336;DHT22;33068;51.990;5.926;2022-10-16T05:20:07;11.60;99.90
47336;DHT22;33068;51.990;5.926;2022-10-16T05:22:34;11.60;99.90
47336;DHT22;33068;51.990;5.926;2022-10-16T05:25:01;11.50;99.90
47336;DHT22;33068;51.990;5.926;2022-10-16T05:27:28;11.50;99.90
47336;DHT22;33068;51.990;5.926;2022-10-16T05:29:55;11.40;99.90
47336;DHT22;33068;51.990;5.926;2022-10-16T05:32:22;11.40;99.90
47336;DHT22;33068;51.990;5.926;2022-10-16T05:34:50;11.40;99.90
47336;DHT22;33068;51.990;5.926;2022-10-16T05:37:19;11.40;99.90
47336;DHT22;33068;51.990;5.926;2022-10-16T05:39:46;11.30;99.90
47336;DHT22;33068;51.990;5.926;2022-10-16T05:42:13;11.30;99.90
47336;DHT22;33068;51.990;5.926;2022-10-16T05:44:40;11.30;99.90
47336;DHT22;33068;51.990;5.926;2022-10-16T05:47:07;11.50;99.90
47336;DHT22;33068;51.990;5.926;2022-10-16T05:49:34;11.30;99.90
47336;DHT22;33068;51.990;5.926;2022-10-16T05:52:01;11.20;99.90
47336;DHT22;33068;51.990;5.926;2022-10-16T05:54:30;11.20;99.90
47336;DHT22;33068;51.990;5.926;2022-10-16T05:56:57;11.20;99.90
47336;DHT22;33068;51.990;5.926;2022-10-16T05:59:24;11.10;99.90
47336;DHT22;33068;51.990;5.926;2022-10-16T06:01:51;11.10;99.90
47336;DHT22;33068;51.990;5.926;2022-10-16T06:04:19;11.10;99.90
47336;DHT22;33068;51.990;5.926;2022-10-16T06:06:46;11.10;99.90
47336;DHT22;33068;51.990;5.926;2022-10-16T06:09:13;11.10;99.90
47336;DHT22;33068;51.990;5.926;2022-10-16T06:11:42;11.10;99.90
47336;DHT22;33068;51.990;5.926;2022-10-16T06:14:09;11.10;99.90
47336;DHT22;33068;51.990;5.926;2022-10-16T06:16:37;11.00;99.90
47336;DHT22;33068;51.990;5.926;2022-10-16T06:19:04;11.00;99.90
47336;DHT22;33068;51.990;5.926;2022-10-16T06:21:33;11.10;99.90
47336;DHT22;33068;51.990;5.926;2022-10-16T06:24:01;11.20;99.90
47336;DHT22;33068;51.990;5.926;2022-10-16T06:26:29;11.20;99.90
47336;DHT22;33068;51.990;5.926;2022-10-16T06:28:59;11.30;99.90
47336;DHT22;33068;51.990;5.926;2022-10-16T06:31:26;11.30;99.90
47336;DHT22;33068;51.990;5.926;2022-10-16T06:33:57;11.40;99.90
47336;DHT22;33068;51.990;5.926;2022-10-16T06:36:24;11.40;99.90
47336;DHT22;33068;51.990;5.926;2022-10-16T06:38:52;11.50;99.90
47336;DHT22;33068;51.990;5.926;2022-10-16T06:41:21;11.60;99.90
47336;DHT22;33068;51.990;5.926;2022-10-16T06:43:48;11.60;99.90
47336;DHT22;33068;51.990;5.926;2022-10-16T06:46:19;11.70;99.90
47336;DHT22;33068;51.990;5.926;2022-10-16T06:48:46;11.70;99.90
47336;DHT22;33068;51.990;5.926;2022-10-16T06:51:15;11.80;99.90
47336;DHT22;33068;51.990;5.926;2022-10-16T06:53:44;11.80;99.90
47336;DHT22;33068;51.990;5.926;2022-10-16T06:56:14;11.90;99.90
47336;DHT22;33068;51.990;5.926;2022-10-16T06:58:42;11.90;99.90
47336;DHT22;33068;51.990;5.926;2022-10-16T07:01:10;12.00;99.90
47336;DHT22;33068;51.990;5.926;2022-10-16T07:03:40;12.00;99.90
47336;DHT22;33068;51.990;5.926;2022-10-16T07:06:10;12.30;99.90
47336;DHT22;33068;51.990;5.926;2022-10-16T07:08:39;12.10;99.90
47336;DHT22;33068;51.990;5.926;2022-10-16T07:11:08;12.10;99.90
47336;DHT22;33068;51.990;5.926;2022-10-16T07:13:37;12.20;99.90
47336;DHT22;33068;51.990;5.926;2022-10-16T07:16:05;12.30;99.90
47336;DHT22;33068;51.990;5.926;2022-10-16T07:18:33;12.30;99.90
47336;DHT22;33068;51.990;5.926;2022-10-16T07:21:05;12.40;99.90
47336;DHT22;33068;51.990;5.926;2022-10-16T07:23:34;12.50;99.90
47336;DHT22;33068;51.990;5.926;2022-10-16T07:26:01;12.50;99.90
47336;DHT22;33068;51.990;5.926;2022-10-16T07:28:28;12.50;99.90
47336;DHT22;33068;51.990;5.926;2022-10-16T07:30:55;12.60;99.90
47336;DHT22;33068;51.990;5.926;2022-10-16T07:33:22;12.60;99.90
47336;DHT22;33068;51.990;5.926;2022-10-16T07:35:50;12.60;99.90
47336;DHT22;33068;51.990;5.926;2022-10-16T07:38:19;12.80;99.90
47336;DHT22;33068;51.990;5.926;2022-10-16T07:40:46;12.80;99.90
47336;DHT22;33068;51.990;5.926;2022-10-16T07:43:13;12.80;99.90
47336;DHT22;33068;51.990;5.926;2022-10-16T07:45:47;12.90;99.90
47336;DHT22;33068;51.990;5.926;2022-10-16T07:48:15;13.00;99.90
47336;DHT22;33068;51.990;5.926;2022-10-16T07:50:42;13.00;99.90
47336;DHT22;33068;51.990;5.926;2022-10-16T07:53:10;13.00;99.90
47336;DHT22;33068;51.990;5.926;2022-10-16T07:55:38;13.10;99.90
47336;DHT22;33068;51.990;5.926;2022-10-16T07:58:06;13.20;99.90
47336;DHT22;33068;51.990;5.926;2022-10-16T08:00:35;13.30;99.90
47336;DHT22;33068;51.990;5.926;2022-10-16T08:03:02;13.40;99.90
47336;DHT22;33068;51.990;5.926;2022-10-16T08:05:31;13.40;99.90
47336;DHT22;33068;51.990;5.926;2022-10-16T08:07:58;13.50;99.90
47336;DHT22;33068;51.990;5.926;2022-10-16T08:10:27;13.50;99.90
47336;DHT22;33068;51.990;5.926;2022-10-16T08:12:56;13.60;99.90
47336;DHT22;33068;51.990;5.926;2022-10-16T08:15:23;13.70;99.90
47336;DHT22;33068;51.990;5.926;2022-10-16T08:17:58;13.80;99.90
47336;DHT22;33068;51.990;5.926;2022-10-16T08:20:26;13.80;99.90
47336;DHT22;33068;51.990;5.926;2022-10-16T08:22:53;13.90;99.90
47336;DHT22;33068;51.990;5.926;2022-10-16T08:25:21;14.00;99.90
47336;DHT22;33068;51.990;5.926;2022-10-16T08:27:48;14.10;99.90
47336;DHT22;33068;51.990;5.926;2022-10-16T08:30:18;14.20;99.90
47336;DHT22;33068;51.990;5.926;2022-10-16T08:32:46;14.30;99.90
47336;DHT22;33068;51.990;5.926;2022-10-16T08:35:13;14.30;99.90
47336;DHT22;33068;51.990;5.926;2022-10-16T08:37:41;14.30;99.90
47336;DHT22;33068;51.990;5.926;2022-10-16T08:40:17;14.40;99.90
47336;DHT22;33068;51.990;5.926;2022-10-16T08:43:01;14.40;99.90
47336;DHT22;33068;51.990;5.926;2022-10-16T08:45:43;14.30;99.90
47336;DHT22;33068;51.990;5.926;2022-10-16T08:48:20;14.30;99.90
47336;DHT22;33068;51.990;5.926;2022-10-16T08:50:50;14.20;99.90
47336;DHT22;33068;51.990;5.926;2022-10-16T08:53:22;14.20;99.90
47336;DHT22;33068;51.990;5.926;2022-10-16T08:55:52;14.30;99.90
47336;DHT22;33068;51.990;5.926;2022-10-16T08:58:22;14.30;99.90
47336;DHT22;33068;51.990;5.926;2022-10-16T09:00:54;14.30;99.90
47336;DHT22;33068;51.990;5.926;2022-10-16T09:03:29;14.30;99.90
47336;DHT22;33068;51.990;5.926;2022-10-16T09:06:25;14.40;99.90
47336;DHT22;33068;51.990;5.926;2022-10-16T09:09:06;14.50;99.90
47336;DHT22;33068;51.990;5.926;2022-10-16T09:11:44;14.60;99.90
47336;DHT22;33068;51.990;5.926;2022-10-16T09:14:25;14.70;99.90
47336;DHT22;33068;51.990;5.926;2022-10-16T09:17:20;14.70;99.90
47336;DHT22;33068;51.990;5.926;2022-10-16T09:19:53;14.80;99.90
47336;DHT22;33068;51.990;5.926;2022-10-16T09:22:24;14.90;99.90
47336;DHT22;33068;51.990;5.926;2022-10-16T09:24:54;15.00;99.90
47336;DHT22;33068;51.990;5.926;2022-10-16T09:27:22;15.10;99.90
47336;DHT22;33068;51.990;5.926;2022-10-16T09:29:49;15.40;99.90
47336;DHT22;33068;51.990;5.926;2022-10-16T09:32:19;15.50;99.90
47336;DHT22;33068;51.990;5.926;2022-10-16T09:34:49;15.70;99.90
47336;DHT22;33068;51.990;5.926;2022-10-16T09:37:20;15.80;99.90
47336;DHT22;33068;51.990;5.926;2022-10-16T09:39:49;15.80;99.90
47336;DHT22;33068;51.990;5.926;2022-10-16T09:42:17;16.00;99.90
47336;DHT22;33068;51.990;5.926;2022-10-16T09:44:48;15.90;99.90
47336;DHT22;33068;51.990;5.926;2022-10-16T09:47:20;15.90;99.90
47336;DHT22;33068;51.990;5.926;2022-10-16T09:49:52;16.00;99.90
47336;DHT22;33068;51.990;5.926;2022-10-16T09:52:19;16.20;99.90
47336;DHT22;33068;51.990;5.926;2022-10-16T09:54:51;16.10;99.90
47336;DHT22;33068;51.990;5.926;2022-10-16T09:57:19;16.20;99.90
47336;DHT22;33068;51.990;5.926;2022-10-16T09:59:48;16.30;99.90
47336;DHT22;33068;51.990;5.926;2022-10-16T10:02:18;16.40;99.90
47336;DHT22;33068;51.990;5.926;2022-10-16T10:04:50;16.50;99.90
47336;DHT22;33068;51.990;5.926;2022-10-16T10:07:24;16.70;99.90
47336;DHT22;33068;51.990;5.926;2022-10-16T10:09:52;16.80;99.90
47336;DHT22;33068;51.990;5.926;2022-10-16T10:12:21;16.90;99.90
47336;DHT22;33068;51.990;5.926;2022-10-16T10:14:50;17.00;99.90
47336;DHT22;33068;51.990;5.926;2022-10-16T10:17:21;17.10;99.90
47336;DHT22;33068;51.990;5.926;2022-10-16T10:19:53;17.30;99.90
47336;DHT22;33068;51.990;5.926;2022-10-16T10:22:30;17.20;99.90
47336;DHT22;33068;51.990;5.926;2022-10-16T10:25:18;17.30;99.90
47336;DHT22;33068;51.990;5.926;2022-10-16T10:28:08;17.40;99.90
47336;DHT22;33068;51.990;5.926;2022-10-16T10:30:42;17.40;99.90
47336;DHT22;33068;51.990;5.926;2022-10-16T10:33:20;17.40;99.90
47336;DHT22;33068;51.990;5.926;2022-10-16T10:35:56;17.30;99.90
47336;DHT22;33068;51.990;5.926;2022-10-16T10:38:37;17.30;99.90
47336;DHT22;33068;51.990;5.926;2022-10-16T10:41:19;17.40;99.90
47336;DHT22;33068;51.990;5.926;2022-10-16T10:43:58;17.70;99.90
47336;DHT22;33068;51.990;5.926;2022-10-16T10:46:30;17.90;99.90
47336;DHT22;33068;51.990;5.926;2022-10-16T10:49:09;18.30;99.90
47336;DHT22;33068;51.990;5.926;2022-10-16T10:51:45;18.30;99.90
47336;DHT22;33068;51.990;5.926;2022-10-16T10:54:22;18.40;99.90
47336;DHT22;33068;51.990;5.926;2022-10-16T10:56:57;18.40;99.90
47336;DHT22;33068;51.990;5.926;2022-10-16T11:02:22;18.50;99.90
47336;DHT22;33068;51.990;5.926;2022-10-16T11:07:59;18.60;99.90
47336;DHT22;33068;51.990;5.926;2022-10-16T11:10:29;18.60;99.90
47336;DHT22;33068;51.990;5.926;2022-10-16T11:13:02;18.60;99.90
47336;DHT22;33068;51.990;5.926;2022-10-16T11:15:34;18.80;99.90
47336;DHT22;33068;51.990;5.926;2022-10-16T11:18:05;19.10;99.90
47336;DHT22;33068;51.990;5.926;2022-10-16T11:20:40;19.40;99.90
47336;DHT22;33068;51.990;5.926;2022-10-16T11:23:15;19.70;99.90
47336;DHT22;33068;51.990;5.926;2022-10-16T11:25:44;19.60;99.90
47336;DHT22;33068;51.990;5.926;2022-10-16T11:28:14;19.20;99.90
47336;DHT22;33068;51.990;5.926;2022-10-16T11:30:46;19.20;99.90
47336;DHT22;33068;51.990;5.926;2022-10-16T11:33:24;18.90;99.90
47336;DHT22;33068;51.990;5.926;2022-10-16T11:36:00;18.70;99.90
47336;DHT22;33068;51.990;5.926;2022-10-16T11:38:32;18.40;99.90
47336;DHT22;33068;51.990;5.926;2022-10-16T11:41:05;18.60;99.90
47336;DHT22;33068;51.990;5.926;2022-10-16T11:43:39;18.90;99.90
47336;DHT22;33068;51.990;5.926;2022-10-16T11:46:12;19.00;99.90
47336;DHT22;33068;51.990;5.926;2022-10-16T11:48:45;19.00;99.90
47336;DHT22;33068;51.990;5.926;2022-10-16T11:51:20;18.90;99.90
47336;DHT22;33068;51.990;5.926;2022-10-16T11:53:55;19.10;99.90
47336;DHT22;33068;51.990;5.926;2022-10-16T11:56:26;19.30;99.90
47336;DHT22;33068;51.990;5.926;2022-10-16T11:58:57;19.60;99.90
47336;DHT22;33068;51.990;5.926;2022-10-16T12:01:30;19.80;99.90
47336;DHT22;33068;51.990;5.926;2022-10-16T12:04:15;19.90;99.90
47336;DHT22;33068;51.990;5.926;2022-10-16T12:06:48;19.80;99.90
47336;DHT22;33068;51.990;5.926;2022-10-16T12:09:21;19.90;99.90
47336;DHT22;33068;51.990;5.926;2022-10-16T12:11:49;19.60;99.90
47336;DHT22;33068;51.990;5.926;2022-10-16T12:14:33;19.20;99.90
47336;DHT22;33068;51.990;5.926;2022-10-16T12:17:03;18.90;99.90
47336;DHT22;33068;51.990;5.926;2022-10-16T12:19:32;18.50;99.90
47336;DHT22;33068;51.990;5.926;2022-10-16T12:22:02;18.60;99.90
47336;DHT22;33068;51.990;5.926;2022-10-16T12:24:35;18.80;99.90
47336;DHT22;33068;51.990;5.926;2022-10-16T12:27:04;19.00;99.90
47336;DHT22;33068;51.990;5.926;2022-10-16T12:29:35;19.10;99.90
47336;DHT22;33068;51.990;5.926;2022-10-16T12:32:04;19.30;99.90
47336;DHT22;33068;51.990;5.926;2022-10-16T12:34:38;19.30;99.90
47336;DHT22;33068;51.990;5.926;2022-10-16T12:37:14;19.50;99.90
47336;DHT22;33068;51.990;5.926;2022-10-16T12:39:45;19.60;99.90
47336;DHT22;33068;51.990;5.926;2022-10-16T12:42:23;19.70;99.90
47336;DHT22;33068;51.990;5.926;2022-10-16T12:44:50;19.80;99.90
47336;DHT22;33068;51.990;5.926;2022-10-16T12:47:22;19.70;99.90
47336;DHT22;33068;51.990;5.926;2022-10-16T12:49:51;19.80;99.90
47336;DHT22;33068;51.990;5.926;2022-10-16T12:52:36;19.70;99.90
47336;DHT22;33068;51.990;5.926;2022-10-16T12:55:05;19.70;99.90
47336;DHT22;33068;51.990;5.926;2022-10-16T12:57:43;19.50;99.90
47336;DHT22;33068;51.990;5.926;2022-10-16T13:00:22;19.30;99.90
47336;DHT22;33068;51.990;5.926;2022-10-16T13:03:16;19.10;99.90
47336;DHT22;33068;51.990;5.926;2022-10-16T13:05:58;19.30;99.90
47336;DHT22;33068;51.990;5.926;2022-10-16T13:08:49;19.40;99.90
47336;DHT22;33068;51.990;5.926;2022-10-16T13:11:26;19.40;99.90
47336;DHT22;33068;51.990;5.926;2022-10-16T13:14:15;19.50;99.90
47336;DHT22;33068;51.990;5.926;2022-10-16T13:16:52;19.40;99.90
47336;DHT22;33068;51.990;5.926;2022-10-16T13:19:28;19.50;99.90
47336;DHT22;33068;51.990;5.926;2022-10-16T13:22:03;19.60;99.90
47336;DHT22;33068;51.990;5.926;2022-10-16T13:24:48;19.70;99.90
47336;DHT22;33068;51.990;5.926;2022-10-16T13:27:27;19.70;99.90
47336;DHT22;33068;51.990;5.926;2022-10-16T13:30:02;19.70;99.90
47336;DHT22;33068;51.990;5.926;2022-10-16T13:32:35;19.60;99.90
47336;DHT22;33068;51.990;5.926;2022-10-16T13:35:03;19.50;99.90
47336;DHT22;33068;51.990;5.926;2022-10-16T13:37:30;19.60;99.90
47336;DHT22;33068;51.990;5.926;2022-10-16T13:40:18;19.70;99.90
47336;DHT22;33068;51.990;5.926;2022-10-16T13:42:46;19.50;99.90
47336;DHT22;33068;51.990;5.926;2022-10-16T13:45:20;19.40;99.90
47336;DHT22;33068;51.990;5.926;2022-10-16T13:47:48;19.40;99.90
47336;DHT22;33068;51.990;5.926;2022-10-16T13:50:17;19.50;99.90
47336;DHT22;33068;51.990;5.926;2022-10-16T13:52:45;19.50;99.90
47336;DHT22;33068;51.990;5.926;2022-10-16T13:55:14;19.60;99.90
47336;DHT22;33068;51.990;5.926;2022-10-16T13:57:42;19.60;99.90
47336;DHT22;33068;51.990;5.926;2022-10-16T14:00:21;19.50;99.90
47336;DHT22;33068;51.990;5.926;2022-10-16T14:02:53;19.30;99.90
47336;DHT22;33068;51.990;5.926;2022-10-16T14:05:22;19.10;99.90
47336;DHT22;33068;51.990;5.926;2022-10-16T14:07:50;18.90;99.90
47336;DHT22;33068;51.990;5.926;2022-10-16T14:10:24;18.90;99.90
47336;DHT22;33068;51.990;5.926;2022-10-16T14:12:59;18.80;99.90
47336;DHT22;33068;51.990;5.926;2022-10-16T14:15:27;18.70;99.90
47336;DHT22;33068;51.990;5.926;2022-10-16T14:17:56;18.80;99.90
47336;DHT22;33068;51.990;5.926;2022-10-16T14:20:26;18.80;99.90
47336;DHT22;33068;51.990;5.926;2022-10-16T14:23:02;18.80;99.90
47336;DHT22;33068;51.990;5.926;2022-10-16T14:25:32;18.80;99.90
47336;DHT22;33068;51.990;5.926;2022-10-16T14:28:02;18.60;99.90
47336;DHT22;33068;51.990;5.926;2022-10-16T14:30:30;18.70;99.90
47336;DHT22;33068;51.990;5.926;2022-10-16T14:33:00;18.70;99.90
47336;DHT22;33068;51.990;5.926;2022-10-16T14:35:30;18.60;99.90
47336;DHT22;33068;51.990;5.926;2022-10-16T14:37:59;18.50;99.90
47336;DHT22;33068;51.990;5.926;2022-10-16T14:40:28;18.50;99.90
47336;DHT22;33068;51.990;5.926;2022-10-16T14:42:58;18.60;99.90
47336;DHT22;33068;51.990;5.926;2022-10-16T14:45:28;18.60;99.90
47336;DHT22;33068;51.990;5.926;2022-10-16T14:47:58;18.60;99.90
47336;DHT22;33068;51.990;5.926;2022-10-16T14:50:27;18.60;99.90
47336;DHT22;33068;51.990;5.926;2022-10-16T14:52:54;18.40;99.90
47336;DHT22;33068;51.990;5.926;2022-10-16T14:55:21;18.40;99.90
47336;DHT22;33068;51.990;5.926;2022-10-16T14:57:49;18.30;99.90
47336;DHT22;33068;51.990;5.926;2022-10-16T15:00:20;18.20;99.90
47336;DHT22;33068;51.990;5.926;2022-10-16T15:02:49;17.90;99.90
47336;DHT22;33068;51.990;5.926;2022-10-16T15:05:19;17.90;99.90
47336;DHT22;33068;51.990;5.926;2022-10-16T15:07:48;17.90;99.90
47336;DHT22;33068;51.990;5.926;2022-10-16T15:10:16;18.00;99.90
47336;DHT22;33068;51.990;5.926;2022-10-16T15:12:43;18.10;99.90
47336;DHT22;33068;51.990;5.926;2022-10-16T15:15:30;18.00;99.90
47336;DHT22;33068;51.990;5.926;2022-10-16T15:17:59;17.90;99.90
47336;DHT22;33068;51.990;5.926;2022-10-16T15:20:29;17.80;99.90
47336;DHT22;33068;51.990;5.926;2022-10-16T15:22:57;17.70;99.90
47336;DHT22;33068;51.990;5.926;2022-10-16T15:25:41;17.70;99.90
47336;DHT22;33068;51.990;5.926;2022-10-16T15:28:09;17.70;99.90
47336;DHT22;33068;51.990;5.926;2022-10-16T15:30:38;17.50;99.90
47336;DHT22;33068;51.990;5.926;2022-10-16T15:33:11;17.30;99.90
47336;DHT22;33068;51.990;5.926;2022-10-16T15:35:39;17.30;99.90
47336;DHT22;33068;51.990;5.926;2022-10-16T15:38:06;17.10;99.90
47336;DHT22;33068;51.990;5.926;2022-10-16T15:40:33;16.90;99.90
47336;DHT22;33068;51.990;5.926;2022-10-16T15:43:00;16.90;99.90
47336;DHT22;33068;51.990;5.926;2022-10-16T15:45:27;16.90;99.90
47336;DHT22;33068;51.990;5.926;2022-10-16T15:47:56;16.80;99.90
47336;DHT22;33068;51.990;5.926;2022-10-16T15:50:23;16.80;99.90
47336;DHT22;33068;51.990;5.926;2022-10-16T15:52:50;16.80;99.90
47336;DHT22;33068;51.990;5.926;2022-10-16T15:55:17;16.80;99.90
47336;DHT22;33068;51.990;5.926;2022-10-16T15:57:44;16.80;99.90